createdAt,value
2023-03-26T00:00:54.139Z,88.50
2023-03-26T00:03:22.431Z,88.50
2023-03-26T00:05:49.781Z,88.60
2023-03-26T00:08:16.967Z,88.60
2023-03-26T00:10:44.204Z,88.70
2023-03-26T00:13:11.251Z,88.80
2023-03-26T00:15:38.186Z,89.00
2023-03-26T00:18:05.806Z,89.10
2023-03-26T00:20:35.526Z,89.10
2023-03-26T00:23:02.321Z,89.20
2023-03-26T00:25:29.199Z,89.20
2023-03-26T00:27:55.973Z,89.30
2023-03-26T00:30:23.225Z,89.40
2023-03-26T00:32:53.363Z,89.60
2023-03-26T00:35:20.925Z,89.70
2023-03-26T00:37:47.935Z,90.10
2023-03-26T00:40:14.720Z,89.90
2023-03-26T00:42:42.532Z,90.00
2023-03-26T00:45:09.812Z,90.00
2023-03-26T00:47:37.171Z,90.00
2023-03-26T00:50:04.358Z,90.30
2023-03-26T00:52:31.774Z,90.10
2023-03-26T00:54:58.764Z,90.20
2023-03-26T00:57:35.562Z,90.20
2023-03-26T01:00:10.134Z,90.20
2023-03-26T01:02:37.111Z,90.30
2023-03-26T01:05:36.069Z,90.30
2023-03-26T01:08:23.229Z,90.40
2023-03-26T01:10:51.575Z,90.40
2023-03-26T01:13:23.035Z,90.30
2023-03-26T01:15:51.123Z,90.30
2023-03-26T01:18:19.941Z,90.30
2023-03-26T01:20:49.732Z,90.40
2023-03-26T01:23:23.837Z,90.40
2023-03-26T01:26:12.272Z,90.40
2023-03-26T01:28:41.433Z,90.40
2023-03-26T01:31:30.464Z,90.40
2023-03-26T01:34:37.460Z,90.50
2023-03-26T01:37:17.671Z,90.50
2023-03-26T01:39:57.065Z,90.40
2023-03-26T01:42:47.223Z,90.40
2023-03-26T01:45:16.769Z,90.40
2023-03-26T01:47:43.624Z,90.40
2023-03-26T01:50:10.581Z,90.40
2023-03-26T01:52:38.036Z,90.40
2023-03-26T01:55:05.432Z,90.40
2023-03-26T01:57:38.449Z,90.50
2023-03-26T02:00:44.463Z,90.50
2023-03-26T02:03:18.126Z,90.50
2023-03-26T02:05:50.656Z,90.70
2023-03-26T02:08:38.377Z,90.50
2023-03-26T02:11:11.888Z,90.50
2023-03-26T02:13:39.282Z,90.50
2023-03-26T02:16:08.020Z,90.40
2023-03-26T02:18:39.115Z,90.30
2023-03-26T02:21:10.064Z,90.20
2023-03-26T02:23:46.978Z,90.20
2023-03-26T02:26:16.248Z,90.10
2023-03-26T02:28:57.814Z,90.20
2023-03-26T02:31:30.254Z,90.20
2023-03-26T02:33:57.312Z,90.20
2023-03-26T02:36:27.638Z,90.30
2023-03-26T02:38:58.163Z,90.30
2023-03-26T02:41:25.457Z,90.60
2023-03-26T02:43:58.178Z,90.50
2023-03-26T02:46:41.970Z,90.50
2023-03-26T02:49:37.464Z,90.50
2023-03-26T02:52:06.674Z,90.50
2023-03-26T02:54:35.146Z,90.50
2023-03-26T02:57:16.284Z,90.60
2023-03-26T02:59:43.263Z,90.60
2023-03-26T03:02:30.095Z,90.70
2023-03-26T03:05:08.423Z,90.80
2023-03-26T03:07:38.664Z,90.90
2023-03-26T03:10:08.660Z,90.90
2023-03-26T03:12:55.642Z,91.00
2023-03-26T03:15:22.447Z,91.00
2023-03-26T03:17:49.360Z,91.00
2023-03-26T03:20:16.843Z,91.00
2023-03-26T03:22:43.809Z,91.10
2023-03-26T03:25:14.322Z,91.10
2023-03-26T03:27:42.844Z,91.20
2023-03-26T03:30:13.169Z,91.20
2023-03-26T03:32:45.683Z,91.10
2023-03-26T03:35:14.720Z,91.10
2023-03-26T03:37:44.692Z,91.10
2023-03-26T03:40:11.947Z,91.10
2023-03-26T03:42:39.584Z,91.20
2023-03-26T03:45:08.417Z,91.20
2023-03-26T03:48:01.369Z,91.20
2023-03-26T03:50:37.166Z,91.20
2023-03-26T03:53:26.459Z,91.20
2023-03-26T03:55:56.071Z,91.20
2023-03-26T03:58:28.404Z,91.20
2023-03-26T04:01:04.274Z,91.20
2023-03-26T04:03:50.384Z,91.20
2023-03-26T04:06:20.395Z,91.10
2023-03-26T04:08:52.306Z,91.20
2023-03-26T04:11:19.461Z,91.10
2023-03-26T04:14:10.212Z,91.10
2023-03-26T04:16:55.002Z,91.10
2023-03-26T04:19:22.954Z,91.10
2023-03-26T04:21:49.828Z,91.10
2023-03-26T04:24:20.493Z,91.20
2023-03-26T04:27:16.204Z,91.20
2023-03-26T04:29:45.877Z,91.20
2023-03-26T04:32:29.831Z,91.20
2023-03-26T04:35:00.283Z,91.30
2023-03-26T04:37:34.509Z,91.30
2023-03-26T04:40:20.255Z,91.40
2023-03-26T04:43:06.411Z,91.40
2023-03-26T04:46:07.521Z,91.40
2023-03-26T04:48:40.540Z,91.50
2023-03-26T04:51:18.285Z,91.50
2023-03-26T04:53:54.092Z,91.60
2023-03-26T04:56:51.335Z,91.70
2023-03-26T04:59:53.704Z,91.80
2023-03-26T05:02:21.264Z,91.70
2023-03-26T05:04:51.907Z,91.70
2023-03-26T05:07:20.956Z,91.70
2023-03-26T05:09:51.308Z,91.70
2023-03-26T05:12:34.657Z,91.70
2023-03-26T05:15:11.487Z,91.60
2023-03-26T05:17:58.620Z,91.70
2023-03-26T05:20:33.581Z,91.70
2023-03-26T05:23:01.352Z,91.70
2023-03-26T05:25:31.021Z,91.80
2023-03-26T05:27:59.551Z,91.90
2023-03-26T05:30:33.455Z,92.30
2023-03-26T05:33:02.778Z,92.10
2023-03-26T05:35:36.689Z,92.10
2023-03-26T05:38:04.537Z,92.20
2023-03-26T05:40:31.333Z,92.20
2023-03-26T05:43:00.715Z,92.30
2023-03-26T05:45:49.847Z,92.30
2023-03-26T05:48:25.452Z,92.20
2023-03-26T05:50:54.839Z,92.20
2023-03-26T05:53:22.418Z,92.20
2023-03-26T05:56:07.555Z,92.20
2023-03-26T05:58:34.795Z,92.20
2023-03-26T06:01:20.788Z,92.20
2023-03-26T06:04:12.571Z,92.10
2023-03-26T06:06:46.316Z,92.10
2023-03-26T06:09:13.695Z,92.00
2023-03-26T06:11:41.932Z,92.00
2023-03-26T06:14:09.081Z,92.00
2023-03-26T06:16:38.869Z,92.00
2023-03-26T06:19:13.641Z,92.00
2023-03-26T06:21:54.576Z,92.00
2023-03-26T06:24:30.089Z,92.00
2023-03-26T06:27:15.759Z,92.10
2023-03-26T06:29:52.986Z,92.00
2023-03-26T06:32:32.505Z,92.00
2023-03-26T06:35:09.950Z,91.90
2023-03-26T06:37:37.053Z,91.90
2023-03-26T06:40:04.654Z,91.90
2023-03-26T06:43:09.586Z,91.90
2023-03-26T06:45:57.086Z,92.00
2023-03-26T06:48:47.003Z,91.90
2023-03-26T06:51:32.344Z,92.00
2023-03-26T06:54:08.364Z,92.00
2023-03-26T06:56:49.946Z,92.00
2023-03-26T06:59:42.980Z,92.00
2023-03-26T07:02:28.391Z,92.00
2023-03-26T07:05:15.737Z,91.90
2023-03-26T07:08:00.980Z,91.90
2023-03-26T07:10:46.784Z,91.90
2023-03-26T07:13:24.540Z,91.90
2023-03-26T07:15:57.128Z,91.90
2023-03-26T07:18:50.972Z,92.00
2023-03-26T07:21:22.674Z,92.00
2023-03-26T07:23:50.121Z,92.00
2023-03-26T07:26:34.750Z,92.00
2023-03-26T07:29:25.575Z,91.90
2023-03-26T07:32:16.155Z,91.90
2023-03-26T07:35:17.157Z,91.90
2023-03-26T07:38:23.203Z,91.90
2023-03-26T07:41:23.885Z,91.90
2023-03-26T07:44:15.472Z,91.90
2023-03-26T07:47:29.161Z,91.90
2023-03-26T07:50:19.123Z,92.00
2023-03-26T07:53:09.859Z,92.00
2023-03-26T07:56:01.627Z,91.90
2023-03-26T07:59:07.121Z,91.90
2023-03-26T08:01:52.085Z,91.80
2023-03-26T08:04:39.311Z,91.70
2023-03-26T08:07:25.061Z,91.70
2023-03-26T08:10:37.200Z,91.70
2023-03-26T08:13:35.043Z,91.70
2023-03-26T08:16:08.204Z,91.70
2023-03-26T08:19:29.923Z,91.80
2023-03-26T08:22:16.935Z,91.90
2023-03-26T08:25:03.319Z,91.90
2023-03-26T08:27:34.498Z,91.80
2023-03-26T08:30:11.938Z,91.60
2023-03-26T08:32:39.082Z,91.50
2023-03-26T08:35:06.633Z,91.40
2023-03-26T08:37:33.546Z,91.40
2023-03-26T08:40:00.733Z,91.40
2023-03-26T08:42:52.195Z,91.40
2023-03-26T08:45:28.099Z,91.40
2023-03-26T08:48:03.937Z,91.40
2023-03-26T08:50:36.650Z,91.40
2023-03-26T08:53:22.010Z,91.40
2023-03-26T08:56:01.700Z,91.50
2023-03-26T08:59:01.893Z,91.40
2023-03-26T09:01:32.012Z,91.40
2023-03-26T09:04:30.874Z,91.40
2023-03-26T09:07:10.037Z,91.40
2023-03-26T09:10:02.953Z,91.30
2023-03-26T09:12:47.725Z,91.40
2023-03-26T09:15:28.034Z,91.30
2023-03-26T09:18:09.890Z,91.30
2023-03-26T09:21:21.523Z,91.20
2023-03-26T09:24:00.403Z,91.30
2023-03-26T09:26:34.455Z,91.20
2023-03-26T09:29:07.298Z,91.30
2023-03-26T09:31:59.433Z,91.50
2023-03-26T09:34:38.707Z,91.40
2023-03-26T09:37:18.862Z,91.50
2023-03-26T09:39:57.812Z,91.10
2023-03-26T09:42:44.734Z,90.90
2023-03-26T09:45:53.187Z,90.60
2023-03-26T09:48:19.994Z,90.50
2023-03-26T09:50:56.196Z,90.70
2023-03-26T09:53:54.446Z,90.30
2023-03-26T09:56:47.040Z,90.20
2023-03-26T09:59:25.674Z,90.10
2023-03-26T10:02:45.797Z,90.20
2023-03-26T10:05:27.139Z,90.30
2023-03-26T10:08:01.610Z,90.30
2023-03-26T10:10:57.587Z,90.30
2023-03-26T10:13:29.965Z,90.40
2023-03-26T10:16:14.786Z,90.40
2023-03-26T10:18:42.266Z,90.40
2023-03-26T10:21:34.571Z,90.30
2023-03-26T10:24:16.680Z,90.30
2023-03-26T10:27:08.957Z,90.30
2023-03-26T10:30:04.259Z,90.20
2023-03-26T10:32:44.355Z,90.00
2023-03-26T10:35:43.075Z,89.90
2023-03-26T10:38:20.798Z,89.80
2023-03-26T10:41:17.156Z,89.70
2023-03-26T10:44:05.208Z,89.40
2023-03-26T10:47:02.773Z,89.30
2023-03-26T10:49:39.774Z,89.20
2023-03-26T10:52:16.029Z,89.20
2023-03-26T10:54:49.005Z,89.20
2023-03-26T10:57:37.348Z,88.80
2023-03-26T11:00:33.530Z,88.60
2023-03-26T11:03:21.003Z,88.70
2023-03-26T11:05:49.816Z,89.00
2023-03-26T11:08:32.617Z,88.90
2023-03-26T11:11:36.352Z,88.80
2023-03-26T11:14:33.822Z,88.50
2023-03-26T11:17:40.677Z,88.20
2023-03-26T11:20:11.218Z,87.90
2023-03-26T11:22:50.407Z,87.60
2023-03-26T11:25:41.907Z,87.20
2023-03-26T11:29:03.592Z,86.70
2023-03-26T11:32:11.786Z,87.00
2023-03-26T11:34:58.405Z,86.40
2023-03-26T11:37:42.108Z,86.20
2023-03-26T11:40:21.303Z,86.10
2023-03-26T11:42:48.868Z,86.00
2023-03-26T11:45:24.317Z,86.00
2023-03-26T11:48:08.138Z,85.80
2023-03-26T11:50:35.937Z,85.80
2023-03-26T11:53:13.537Z,85.90
2023-03-26T11:56:06.310Z,85.60
2023-03-26T11:58:40.443Z,85.30
2023-03-26T12:01:18.850Z,85.00
2023-03-26T12:04:03.508Z,84.00
2023-03-26T12:06:30.543Z,83.50
2023-03-26T12:08:57.581Z,83.00
2023-03-26T12:11:32.603Z,82.30
2023-03-26T12:14:01.926Z,82.10
2023-03-26T12:16:28.933Z,81.70
2023-03-26T12:19:00.133Z,81.70
2023-03-26T12:21:27.201Z,81.70
2023-03-26T12:23:56.358Z,82.10
2023-03-26T12:26:41.322Z,82.70
2023-03-26T12:29:13.185Z,83.00
2023-03-26T12:31:56.437Z,83.60
2023-03-26T12:34:34.756Z,84.30
2023-03-26T12:37:01.974Z,85.10
2023-03-26T12:40:12.009Z,85.40
2023-03-26T12:44:55.267Z,86.10
2023-03-26T12:45:40.782Z,85.70
2023-03-26T12:48:07.897Z,85.70
2023-03-26T12:51:29.417Z,85.60
2023-03-26T12:53:59.362Z,85.70
2023-03-26T12:56:39.094Z,85.70
2023-03-26T12:59:18.588Z,85.70
2023-03-26T13:01:55.842Z,85.60
2023-03-26T13:04:37.747Z,85.30
2023-03-26T13:07:25.978Z,85.30
2023-03-26T13:10:19.673Z,85.50
2023-03-26T13:13:05.180Z,85.70
2023-03-26T13:15:39.442Z,86.00
2023-03-26T13:18:31.521Z,86.10
2023-03-26T13:21:04.706Z,86.30
2023-03-26T13:23:58.546Z,86.40
2023-03-26T13:26:46.989Z,86.50
2023-03-26T13:29:34.633Z,86.60
2023-03-26T13:32:26.402Z,86.40
2023-03-26T13:35:10.737Z,86.20
2023-03-26T13:38:18.339Z,86.10
2023-03-26T13:40:58.596Z,86.10
2023-03-26T13:43:52.988Z,86.10
2023-03-26T13:46:35.916Z,86.00
2023-03-26T13:49:44.960Z,86.10
2023-03-26T13:52:26.890Z,86.20
2023-03-26T13:55:03.338Z,86.10
2023-03-26T13:57:35.370Z,86.00
2023-03-26T14:00:12.807Z,85.80
2023-03-26T14:02:40.717Z,85.60
2023-03-26T14:05:26.636Z,85.30
2023-03-26T14:08:00.596Z,85.10
2023-03-26T14:10:30.700Z,85.70
2023-03-26T14:13:09.848Z,85.70
2023-03-26T14:15:42.137Z,85.10
2023-03-26T14:18:35.102Z,85.10
2023-03-26T14:21:29.221Z,85.10
2023-03-26T14:23:55.998Z,85.10
2023-03-26T14:26:27.280Z,85.30
2023-03-26T14:29:12.953Z,85.30
2023-03-26T14:32:02.515Z,85.20
2023-03-26T14:34:41.368Z,85.20
2023-03-26T14:37:27.366Z,85.30
2023-03-26T14:40:15.051Z,85.30
2023-03-26T14:42:59.139Z,85.10
2023-03-26T14:45:47.528Z,85.30
2023-03-26T14:48:26.510Z,85.40
2023-03-26T14:51:08.012Z,85.50
2023-03-26T14:53:36.535Z,85.30
2023-03-26T14:56:24.835Z,85.30
2023-03-26T14:59:18.984Z,85.20
2023-03-26T15:02:04.316Z,85.00
2023-03-26T15:04:53.552Z,85.00
2023-03-26T15:07:23.193Z,84.80
2023-03-26T15:10:28.694Z,85.40
2023-03-26T15:13:10.476Z,84.90
2023-03-26T15:15:43.221Z,84.90
2023-03-26T15:18:37.061Z,84.80
2023-03-26T15:21:17.454Z,84.60
2023-03-26T15:24:02.627Z,84.70
2023-03-26T15:26:48.553Z,84.60
2023-03-26T15:29:30.689Z,84.50
2023-03-26T15:32:22.336Z,84.30
2023-03-26T15:35:31.975Z,84.00
2023-03-26T15:38:35.532Z,83.80
2023-03-26T15:41:17.605Z,83.50
2023-03-26T15:46:38.697Z,83.40
2023-03-26T15:49:52.216Z,83.20
2023-03-26T15:52:19.081Z,82.70
2023-03-26T15:55:04.049Z,82.70
2023-03-26T15:57:44.730Z,82.40
2023-03-26T16:00:25.248Z,82.20
2023-03-26T16:03:09.138Z,82.10
2023-03-26T16:05:40.526Z,82.00
2023-03-26T16:08:39.456Z,82.10
2023-03-26T16:11:12.516Z,82.00
2023-03-26T16:13:43.874Z,82.20
2023-03-26T16:16:16.143Z,82.10
2023-03-26T16:18:44.013Z,81.80
2023-03-26T16:21:31.132Z,81.80
2023-03-26T16:24:02.253Z,81.70
2023-03-26T16:26:52.380Z,81.70
2023-03-26T16:29:26.871Z,81.50
2023-03-26T16:31:58.329Z,81.30
2023-03-26T16:34:57.336Z,81.10
2023-03-26T16:37:36.679Z,80.70
2023-03-26T16:40:27.231Z,80.70
2023-03-26T16:43:30.344Z,80.20
2023-03-26T16:46:15.554Z,80.00
2023-03-26T16:48:58.414Z,79.90
2023-03-26T16:52:05.093Z,79.80
2023-03-26T16:54:44.095Z,79.60
2023-03-26T16:57:29.379Z,79.40
2023-03-26T17:00:07.733Z,79.10
2023-03-26T17:02:48.027Z,79.50
2023-03-26T17:05:34.291Z,79.20
2023-03-26T17:08:46.477Z,79.30
2023-03-26T17:11:24.455Z,79.00
2023-03-26T17:14:22.534Z,79.10
2023-03-26T17:17:10.924Z,78.80
2023-03-26T17:19:50.438Z,78.90
2023-03-26T17:22:37.955Z,79.00
2023-03-26T17:25:52.202Z,78.70
2023-03-26T17:28:47.400Z,78.40
2023-03-26T17:31:27.670Z,78.20
2023-03-26T17:33:54.811Z,77.80
2023-03-26T17:36:43.439Z,77.90
2023-03-26T17:39:21.586Z,77.70
2023-03-26T17:41:53.315Z,77.60
2023-03-26T17:44:37.568Z,77.60
2023-03-26T17:47:06.616Z,77.30
2023-03-26T17:49:34.107Z,77.50
2023-03-26T17:52:19.952Z,77.20
2023-03-26T17:54:51.294Z,77.00
2023-03-26T17:57:54.836Z,77.00
2023-03-26T18:00:23.567Z,77.00
2023-03-26T18:02:54.513Z,77.20
2023-03-26T18:05:21.739Z,77.10
2023-03-26T18:08:02.050Z,77.10
2023-03-26T18:10:43.763Z,77.10
2023-03-26T18:13:17.163Z,77.10
2023-03-26T18:16:16.012Z,77.10
2023-03-26T18:18:57.949Z,77.40
2023-03-26T18:21:32.734Z,77.70
2023-03-26T18:24:00.614Z,77.90
2023-03-26T18:26:36.282Z,77.70
2023-03-26T18:29:24.012Z,77.50
2023-03-26T18:31:58.365Z,77.30
2023-03-26T18:34:26.173Z,77.40
2023-03-26T18:37:11.370Z,77.80
2023-03-26T18:39:38.604Z,78.10
2023-03-26T18:42:06.556Z,78.40
2023-03-26T18:44:35.545Z,78.30
2023-03-26T18:47:09.656Z,78.20
2023-03-26T18:49:36.786Z,77.90
2023-03-26T18:52:03.814Z,77.80
2023-03-26T18:54:34.022Z,77.60
2023-03-26T18:57:15.280Z,77.60
2023-03-26T18:59:45.229Z,77.50
2023-03-26T19:02:13.675Z,77.60
2023-03-26T19:04:41.720Z,77.70
2023-03-26T19:07:15.231Z,77.70
2023-03-26T19:09:42.540Z,77.90
2023-03-26T19:12:20.130Z,77.90
2023-03-26T19:15:16.184Z,77.80
2023-03-26T19:17:46.945Z,77.80
2023-03-26T19:20:18.289Z,78.00
2023-03-26T19:22:46.343Z,77.90
2023-03-26T19:25:42.656Z,78.10
2023-03-26T19:28:25.813Z,78.20
2023-03-26T19:30:57.975Z,77.90
2023-03-26T19:33:32.501Z,77.90
2023-03-26T19:36:04.893Z,77.70
2023-03-26T19:38:38.986Z,77.30
2023-03-26T19:41:06.451Z,77.30
2023-03-26T19:43:33.295Z,77.30
2023-03-26T19:46:01.278Z,77.30
2023-03-26T19:48:46.113Z,77.20
2023-03-26T19:51:22.170Z,77.30
2023-03-26T19:53:53.121Z,77.50
2023-03-26T19:56:20.864Z,77.60
2023-03-26T19:58:48.617Z,77.70
2023-03-26T20:01:20.991Z,77.60
2023-03-26T20:03:49.362Z,77.60
2023-03-26T20:06:17.890Z,77.60
2023-03-26T20:08:44.817Z,77.60
2023-03-26T20:11:18.570Z,77.60
2023-03-26T20:13:45.417Z,77.70
2023-03-26T20:16:23.376Z,77.70
2023-03-26T20:18:53.769Z,77.60
2023-03-26T20:21:20.696Z,77.60
2023-03-26T20:23:48.005Z,77.60
2023-03-26T20:26:15.537Z,77.50
2023-03-26T20:28:48.295Z,77.60
2023-03-26T20:31:22.075Z,77.60
2023-03-26T20:33:49.977Z,77.60
2023-03-26T20:36:33.778Z,77.70
2023-03-26T20:39:06.004Z,77.70
2023-03-26T20:41:33.718Z,77.50
2023-03-26T20:44:01.059Z,77.50
2023-03-26T20:46:31.120Z,77.60
2023-03-26T20:48:58.950Z,77.60
2023-03-26T20:51:27.134Z,77.70
2023-03-26T20:53:53.969Z,77.70
2023-03-26T20:56:22.036Z,77.70
2023-03-26T20:59:09.761Z,77.70
2023-03-26T21:01:38.166Z,77.90
2023-03-26T21:04:06.238Z,77.90
2023-03-26T21:06:33.147Z,77.90
2023-03-26T21:09:00.573Z,77.80
2023-03-26T21:11:49.349Z,77.70
2023-03-26T21:14:22.497Z,77.80
2023-03-26T21:16:49.698Z,77.80
2023-03-26T21:19:20.412Z,77.90
2023-03-26T21:21:59.737Z,77.90
2023-03-26T21:24:40.943Z,77.80
2023-03-26T21:27:26.469Z,77.90
2023-03-26T21:29:55.453Z,77.90
2023-03-26T21:32:23.271Z,77.90
2023-03-26T21:34:58.453Z,77.90
2023-03-26T21:37:26.959Z,77.90
2023-03-26T21:39:54.509Z,77.90
2023-03-26T21:42:21.714Z,77.90
2023-03-26T21:44:49.597Z,77.90
2023-03-26T21:47:16.988Z,77.80
2023-03-26T21:49:44.331Z,77.90
2023-03-26T21:52:15.075Z,78.00
2023-03-26T21:54:43.096Z,78.00
2023-03-26T21:57:28.445Z,78.10
2023-03-26T22:00:18.676Z,77.90
2023-03-26T22:03:08.403Z,77.90
2023-03-26T22:05:45.348Z,78.00
2023-03-26T22:08:33.230Z,78.00
2023-03-26T22:11:00.115Z,78.10
2023-03-26T22:13:27.245Z,78.10
2023-03-26T22:15:54.238Z,78.00
2023-03-26T22:18:21.739Z,77.90
2023-03-26T22:20:49.023Z,77.90
2023-03-26T22:23:16.694Z,77.90
2023-03-26T22:25:44.033Z,77.80
2023-03-26T22:28:11.072Z,77.80
2023-03-26T22:30:38.737Z,77.70
2023-03-26T22:33:06.035Z,77.60
2023-03-26T22:35:32.845Z,77.60
2023-03-26T22:38:00.752Z,78.20
2023-03-26T22:40:28.381Z,77.60
2023-03-26T22:42:55.276Z,77.70
2023-03-26T22:45:22.913Z,78.30
2023-03-26T22:47:49.985Z,77.80
2023-03-26T22:50:16.870Z,77.80
2023-03-26T22:52:43.740Z,77.90
2023-03-26T22:55:11.592Z,77.90
2023-03-26T22:57:39.096Z,78.00
2023-03-26T23:00:16.319Z,78.00
2023-03-26T23:02:46.494Z,78.10
2023-03-26T23:05:14.002Z,78.20
2023-03-26T23:07:42.449Z,78.20
2023-03-26T23:10:09.656Z,78.30
2023-03-26T23:12:36.781Z,78.40
2023-03-26T23:15:05.274Z,78.40
2023-03-26T23:17:34.363Z,78.40
2023-03-26T23:20:02.415Z,78.40
2023-03-26T23:22:29.234Z,78.40
2023-03-26T23:24:56.119Z,78.50
2023-03-26T23:27:23.168Z,78.60
2023-03-26T23:29:50.125Z,78.50
2023-03-26T23:32:23.649Z,78.90
2023-03-26T23:34:52.143Z,78.90
2023-03-26T23:37:23.327Z,78.40
2023-03-26T23:39:50.990Z,78.40
2023-03-26T23:42:28.816Z,78.40
2023-03-26T23:44:57.249Z,78.40
2023-03-26T23:47:24.529Z,78.50
2023-03-26T23:49:51.549Z,78.50
2023-03-26T23:52:18.865Z,78.40
2023-03-26T23:54:45.795Z,78.40
2023-03-26T23:57:12.850Z,78.40
2023-03-26T23:59:41.467Z,78.90
